Time;durP1;ratioP1;P1;durP2;ratioP2;P2;SDS_P1;SDS_P2;PMS_P1;PMS_P2;Temp;Humidity;BMP_temperature;BMP_pressure;BME280_temperature;BME280_humidity;BME280_pressure;Samples;Min_cycle;Max_cycle;Signal;HPM_P1;HPM_P2
2021/03/31 00:01:18;;;;;;;15.40;6.40;;;;;;;6.49;92.24;97281.84;5009469;28;20202;-71
2021/03/31 00:03:44;;;;;;;14.03;7.03;;;;;;;6.48;91.95;97288.03;5007060;28;20272;-74
2021/03/31 00:06:11;;;;;;;12.93;6.63;;;;;;;6.42;92.64;97285.91;5006342;28;20300;-72
2021/03/31 00:08:38;;;;;;;17.70;7.43;;;;;;;6.41;93.56;97281.63;5010326;28;20244;-73
2021/03/31 00:11:05;;;;;;;12.20;6.17;;;;;;;6.47;92.44;97273.25;5004770;28;20203;-74
2021/03/31 00:13:31;;;;;;;13.77;6.97;;;;;;;6.42;91.66;97283.28;5009320;28;20218;-72
2021/03/31 00:15:58;;;;;;;19.13;6.90;;;;;;;6.34;92.59;97280.47;5010014;28;20221;-74
2021/03/31 00:18:24;;;;;;;14.47;6.80;;;;;;;6.37;92.07;97277.59;5007830;28;20202;-71
2021/03/31 00:20:51;;;;;;;12.57;6.50;;;;;;;6.29;92.68;97277.41;5003309;28;20206;-71
2021/03/31 00:23:21;;;;;;;13.40;6.77;;;;;;;6.25;92.60;97272.53;5002719;28;20207;-72
2021/03/31 00:25:48;;;;;;;13.20;7.00;;;;;;;6.31;91.84;97272.03;5006902;28;20289;-72
2021/03/31 00:28:14;;;;;;;16.67;7.30;;;;;;;6.26;92.78;97275.03;5008616;28;20229;-75
2021/03/31 00:30:41;;;;;;;16.53;7.33;;;;;;;6.22;93.16;97273.63;5006717;28;20253;-73
2021/03/31 00:33:08;;;;;;;14.90;6.53;;;;;;;6.23;91.45;97270.03;5008480;28;20207;-74
2021/03/31 00:35:34;;;;;;;15.07;6.63;;;;;;;6.12;91.37;97267.47;5001398;28;20209;-74
2021/03/31 00:38:01;;;;;;;12.10;6.30;;;;;;;6.12;91.41;97266.63;5009450;28;20252;-72
2021/03/31 00:40:30;;;;;;;14.67;6.77;;;;;;;6.01;92.33;97269.31;5007070;28;21121;-71
2021/03/31 00:42:56;;;;;;;12.20;6.63;;;;;;;6.00;93.08;97266.81;5006156;28;20248;-75
2021/03/31 00:45:23;;;;;;;16.27;6.93;;;;;;;5.95;93.63;97259.34;5007506;28;20218;-74
2021/03/31 00:47:49;;;;;;;13.53;6.53;;;;;;;5.76;94.10;97259.16;5005845;28;20219;-74
2021/03/31 00:50:17;;;;;;;17.10;6.60;;;;;;;5.85;93.85;97253.19;5006435;28;20210;-71
2021/03/31 00:52:45;;;;;;;13.20;6.67;;;;;;;5.75;93.24;97256.63;5011523;28;20243;-73
2021/03/31 00:55:14;;;;;;;16.80;7.67;;;;;;;5.66;94.89;97257.38;5006490;28;20257;-75
2021/03/31 00:57:41;;;;;;;15.23;6.73;;;;;;;5.62;95.10;97255.97;5006387;28;20253;-75
2021/03/31 01:00:10;;;;;;;20.20;6.80;;;;;;;5.67;94.21;97259.03;5005186;28;20207;-74
2021/03/31 01:02:36;;;;;;;15.67;7.10;;;;;;;5.57;94.17;97253.69;4997916;28;20202;-72
2021/03/31 01:05:06;;;;;;;16.33;7.80;;;;;;;5.65;95.69;97256.56;4998418;28;20225;-71
2021/03/31 01:07:32;;;;;;;16.93;6.77;;;;;;;5.77;94.13;97244.31;5013045;28;20595;-71
2021/03/31 01:09:58;;;;;;;14.00;6.80;;;;;;;5.75;92.78;97248.78;5009330;28;20202;-71
2021/03/31 01:12:36;;;;;;;13.40;6.40;;;;;;;5.70;93.64;97248.31;5007191;28;20202;-74
2021/03/31 01:15:12;;;;;;;17.27;7.50;;;;;;;5.70;94.13;97251.78;5004893;28;20275;-74
2021/03/31 01:17:45;;;;;;;14.53;6.67;;;;;;;5.62;93.84;97240.28;5006023;28;20221;-73
2021/03/31 01:20:35;;;;;;;14.17;7.03;;;;;;;5.52;96.07;97242.81;5001613;28;20199;-74
2021/03/31 01:23:48;;;;;;;15.93;7.43;;;;;;;5.57;97.48;97248.47;5006477;28;20202;-74
2021/03/31 01:26:24;;;;;;;20.63;7.70;;;;;;;5.58;97.01;97249.31;4999956;28;20210;-71
2021/03/31 01:29:17;;;;;;;13.83;7.50;;;;;;;5.69;97.50;97233.56;5005208;28;20217;-74
2021/03/31 01:32:05;;;;;;;16.50;6.73;;;;;;;5.67;94.37;97245.97;5005310;28;20207;-70
2021/03/31 01:34:42;;;;;;;16.70;6.50;;;;;;;5.58;95.13;97244.09;5008097;28;21044;-71
2021/03/31 01:37:14;;;;;;;16.10;7.83;;;;;;;5.57;95.78;97235.41;5008277;28;20200;-72
2021/03/31 01:39:42;;;;;;;21.63;7.13;;;;;;;5.60;95.97;97247.38;5004755;28;21139;-70
2021/03/31 01:42:10;;;;;;;16.03;7.77;;;;;;;5.55;95.27;97239.13;5005379;28;20208;-71
2021/03/31 01:44:40;;;;;;;13.47;6.60;;;;;;;5.44;95.67;97246.97;5005065;28;20227;-74
2021/03/31 01:47:08;;;;;;;15.13;7.33;;;;;;;5.40;95.89;97240.31;5004128;28;20230;-73
2021/03/31 01:49:35;;;;;;;14.10;6.90;;;;;;;5.43;96.50;97237.44;5008222;28;20208;-73
2021/03/31 01:52:06;;;;;;;17.43;7.70;;;;;;;5.36;95.28;97233.69;5001748;28;20209;-72
2021/03/31 01:54:34;;;;;;;12.37;6.67;;;;;;;5.25;94.75;97232.88;5004822;28;20225;-75
2021/03/31 01:57:02;;;;;;;17.80;7.23;;;;;;;5.28;96.01;97235.22;5000645;28;20261;-74
2021/03/31 01:59:29;;;;;;;17.33;6.90;;;;;;;5.25;95.59;97238.91;5005704;28;20202;-71
2021/03/31 02:01:58;;;;;;;20.23;7.80;;;;;;;5.22;96.48;97233.94;5005176;28;20198;-71
2021/03/31 02:04:26;;;;;;;14.90;6.53;;;;;;;5.30;95.45;97233.34;5004903;28;20230;-72
2021/03/31 02:06:54;;;;;;;15.90;6.77;;;;;;;5.22;95.26;97231.31;5003545;28;20680;-74
2021/03/31 02:09:22;;;;;;;16.37;6.93;;;;;;;5.22;96.32;97225.25;5006710;28;20250;-72
2021/03/31 02:11:48;;;;;;;15.83;7.43;;;;;;;5.14;96.45;97225.03;5004849;28;21196;-74
2021/03/31 02:14:17;;;;;;;13.20;6.30;;;;;;;5.07;96.64;97224.69;5005474;28;20221;-74
2021/03/31 02:16:44;;;;;;;18.03;6.93;;;;;;;5.02;96.56;97221.59;5003840;28;20259;-74
2021/03/31 02:19:14;;;;;;;15.20;6.80;;;;;;;4.99;95.86;97227.06;5008509;28;20201;-74
2021/03/31 02:21:43;;;;;;;16.00;6.53;;;;;;;4.95;96.92;97222.19;5005418;28;20201;-71
2021/03/31 02:24:13;;;;;;;16.80;7.00;;;;;;;4.82;98.56;97220.66;5003930;28;20603;-74
2021/03/31 02:26:40;;;;;;;16.77;7.40;;;;;;;4.74;100.00;97220.44;5003235;28;20219;-75
2021/03/31 02:29:07;;;;;;;16.70;6.73;;;;;;;4.89;99.24;97212.25;5004235;28;20222;-71
2021/03/31 02:31:33;;;;;;;17.87;7.37;;;;;;;4.90;97.99;97206.88;5004458;28;20198;-71
2021/03/31 02:34:02;;;;;;;15.60;7.73;;;;;;;4.84;98.46;97204.75;5004840;28;20723;-74
2021/03/31 02:36:30;;;;;;;18.03;7.07;;;;;;;4.90;97.25;97209.50;5005798;28;20210;-72
2021/03/31 02:38:56;;;;;;;14.73;6.70;;;;;;;4.86;97.08;97202.84;5007328;28;20684;-74
2021/03/31 02:41:23;;;;;;;14.97;7.20;;;;;;;4.84;97.52;97199.53;5008181;28;20244;-74
2021/03/31 02:43:52;;;;;;;14.60;6.67;;;;;;;4.85;96.00;97198.56;5007792;28;20229;-75
2021/03/31 02:46:21;;;;;;;16.17;7.03;;;;;;;4.75;96.88;97203.78;5005240;28;20936;-72
2021/03/31 02:48:48;;;;;;;15.77;6.43;;;;;;;4.76;96.28;97200.22;5004692;28;20296;-71
2021/03/31 02:51:16;;;;;;;13.27;6.67;;;;;;;4.70;95.57;97203.31;5005148;28;20256;-75
2021/03/31 02:53:43;;;;;;;15.90;6.97;;;;;;;4.66;96.99;97205.34;5007568;28;20417;-75
2021/03/31 02:56:11;;;;;;;18.73;7.23;;;;;;;4.61;96.90;97197.03;5001463;28;20214;-74
2021/03/31 02:58:39;;;;;;;17.50;7.37;;;;;;;4.51;98.63;97190.84;5004217;28;20571;-71
2021/03/31 03:01:07;;;;;;;17.93;7.53;;;;;;;4.52;98.99;97187.31;5004885;28;20202;-73
2021/03/31 03:03:34;;;;;;;14.17;6.80;;;;;;;4.59;97.96;97192.88;5003680;28;21265;-73
2021/03/31 03:06:01;;;;;;;23.43;8.47;;;;;;;4.62;99.29;97190.03;5003467;28;20241;-72
2021/03/31 03:08:28;;;;;;;19.23;7.13;;;;;;;4.58;98.27;97186.00;5006797;28;20233;-71
2021/03/31 03:10:57;;;;;;;15.07;7.00;;;;;;;4.56;97.38;97191.34;5007816;28;20753;-74
2021/03/31 03:13:24;;;;;;;17.97;7.63;;;;;;;4.52;98.00;97189.06;5005252;28;20628;-73
2021/03/31 03:15:51;;;;;;;16.53;8.00;;;;;;;4.42;99.70;97185.50;5003750;28;20206;-72
2021/03/31 03:18:18;;;;;;;16.73;8.00;;;;;;;4.37;100.00;97183.25;5005702;28;21057;-71
2021/03/31 03:20:44;;;;;;;20.00;7.97;;;;;;;4.44;100.00;97186.22;5009310;28;20205;-74
2021/03/31 03:23:10;;;;;;;19.80;7.50;;;;;;;4.49;100.00;97184.09;5009653;28;20202;-70
2021/03/31 03:25:37;;;;;;;22.27;7.47;;;;;;;4.46;100.00;97182.53;5011870;28;20213;-73
2021/03/31 03:28:04;;;;;;;14.47;7.80;;;;;;;4.42;100.00;97182.91;5007000;28;20222;-72
2021/03/31 03:30:32;;;;;;;17.53;7.50;;;;;;;4.51;100.00;97184.81;5007410;28;20350;-74
2021/03/31 03:32:59;;;;;;;15.43;6.77;;;;;;;4.43;100.00;97179.31;5007914;28;20328;-70
2021/03/31 03:35:28;;;;;;;13.10;6.30;;;;;;;4.41;98.81;97183.84;5009865;28;20222;-74
2021/03/31 03:37:54;;;;;;;16.57;6.67;;;;;;;4.20;98.58;97189.84;5010532;28;20202;-71
2021/03/31 03:40:23;;;;;;;18.43;7.10;;;;;;;4.14;99.35;97183.34;5008774;28;20686;-70
2021/03/31 03:42:49;;;;;;;16.43;7.33;;;;;;;4.07;100.00;97183.91;5007350;28;21016;-71
2021/03/31 03:45:17;;;;;;;12.73;7.20;;;;;;;4.10;100.00;97184.50;5007469;28;20277;-74
2021/03/31 03:47:44;;;;;;;15.63;7.20;;;;;;;4.12;100.00;97182.59;5010502;28;20248;-74
2021/03/31 03:50:12;;;;;;;15.67;6.80;;;;;;;4.16;98.00;97184.03;5006404;28;20594;-73
2021/03/31 03:52:40;;;;;;;18.77;6.47;;;;;;;4.07;96.61;97179.50;5013548;28;20213;-70
2021/03/31 03:55:07;;;;;;;16.83;6.93;;;;;;;4.05;97.46;97175.34;5005984;28;20274;-74
2021/03/31 03:57:33;;;;;;;15.83;7.13;;;;;;;3.94;100.00;97175.34;5007387;28;20191;-71
2021/03/31 03:59:59;;;;;;;12.70;6.63;;;;;;;3.97;100.00;97178.56;5006926;28;20202;-74
2021/03/31 04:02:25;;;;;;;18.33;7.57;;;;;;;3.99;100.00;97186.25;5009559;28;20206;-73
2021/03/31 04:04:51;;;;;;;18.80;7.30;;;;;;;3.95;100.00;97180.44;5010597;28;20221;-74
2021/03/31 04:07:17;;;;;;;16.00;7.47;;;;;;;3.99;99.62;97186.25;5008221;28;20229;-74
2021/03/31 04:09:47;;;;;;;14.00;7.17;;;;;;;3.87;98.54;97182.78;5006948;28;20203;-74
2021/03/31 04:12:14;;;;;;;17.10;6.50;;;;;;;3.85;98.37;97181.22;5007195;28;20199;-72
2021/03/31 04:14:41;;;;;;;13.00;6.80;;;;;;;3.80;98.43;97184.16;5006811;28;20233;-71
2021/03/31 04:17:10;;;;;;;15.47;6.87;;;;;;;3.89;100.00;97186.09;5005996;28;20215;-74
2021/03/31 04:19:38;;;;;;;18.83;7.17;;;;;;;3.95;100.00;97190.88;5006820;28;20595;-74
2021/03/31 04:22:05;;;;;;;18.53;7.03;;;;;;;3.88;99.90;97194.88;5010140;28;20267;-70
2021/03/31 04:24:31;;;;;;;13.60;6.87;;;;;;;3.86;98.54;97191.53;5006897;28;20355;-74
2021/03/31 04:26:59;;;;;;;15.53;7.13;;;;;;;3.79;99.77;97194.72;5009412;28;20217;-71
2021/03/31 04:29:26;;;;;;;18.40;7.23;;;;;;;3.64;100.00;97186.25;5006575;28;20679;-72
2021/03/31 04:31:52;;;;;;;12.77;6.47;;;;;;;3.64;100.00;97181.03;5006620;28;20207;-72
2021/03/31 04:34:20;;;;;;;12.90;6.93;;;;;;;3.62;100.00;97193.34;5008535;28;20223;-74
2021/03/31 04:36:46;;;;;;;16.60;7.70;;;;;;;3.58;100.00;97190.22;5009542;28;20198;-73
2021/03/31 04:39:12;;;;;;;14.47;7.30;;;;;;;3.54;100.00;97189.66;5008488;28;20213;-72
2021/03/31 04:41:38;;;;;;;20.73;7.73;;;;;;;3.58;100.00;97179.81;5006664;28;20207;-74
2021/03/31 04:44:06;;;;;;;16.07;7.23;;;;;;;3.59;100.00;97184.94;5006770;28;20296;-73
2021/03/31 04:46:33;;;;;;;14.53;7.33;;;;;;;3.66;99.64;97184.34;5008637;28;20212;-74
2021/03/31 04:49:00;;;;;;;14.17;6.80;;;;;;;3.72;98.24;97188.31;5009492;28;20232;-74
2021/03/31 04:51:26;;;;;;;23.90;7.73;;;;;;;3.73;100.00;97185.56;5008982;28;20313;-73
2021/03/31 04:53:52;;;;;;;15.23;7.40;;;;;;;3.70;99.43;97195.38;5008644;28;20313;-71
2021/03/31 04:56:18;;;;;;;16.23;7.03;;;;;;;3.69;98.00;97189.34;5002961;28;20211;-71
2021/03/31 04:58:44;;;;;;;20.60;7.73;;;;;;;3.69;97.11;97184.13;5009444;28;20201;-73
2021/03/31 05:01:11;;;;;;;18.63;7.03;;;;;;;3.67;97.65;97186.00;5008827;28;20205;-71
2021/03/31 05:03:37;;;;;;;19.90;7.40;;;;;;;3.71;100.00;97189.25;5006042;28;20241;-74
2021/03/31 05:06:03;;;;;;;20.90;7.57;;;;;;;3.67;100.00;97191.22;5005313;28;20289;-70
2021/03/31 05:08:29;;;;;;;22.43;8.77;;;;;;;3.68;100.00;97185.09;5007482;28;20224;-70
2021/03/31 05:10:55;;;;;;;20.87;7.63;;;;;;;3.66;100.00;97184.34;5008511;28;20202;-74
2021/03/31 05:13:21;;;;;;;18.10;7.63;;;;;;;3.75;100.00;97191.50;5007092;28;21041;-74
2021/03/31 05:15:47;;;;;;;20.27;8.10;;;;;;;3.84;100.00;97192.59;5007054;28;20271;-73
2021/03/31 05:18:14;;;;;;;23.20;7.40;;;;;;;3.87;100.00;97188.00;5005695;28;20310;-72
2021/03/31 05:20:40;;;;;;;14.63;7.83;;;;;;;3.74;100.00;97192.47;5007050;28;20210;-71
2021/03/31 05:23:07;;;;;;;16.67;7.90;;;;;;;3.78;100.00;97183.47;5005209;28;20218;-71
2021/03/31 05:25:33;;;;;;;24.70;8.23;;;;;;;3.88;100.00;97179.25;5007197;28;20206;-74
2021/03/31 05:27:59;;;;;;;24.03;8.80;;;;;;;3.96;100.00;97187.31;5005213;28;20229;-70
2021/03/31 05:30:26;;;;;;;25.43;7.80;;;;;;;3.98;98.89;97185.41;5006124;28;20306;-72
2021/03/31 05:32:52;;;;;;;18.57;7.83;;;;;;;4.05;98.58;97180.56;5009703;28;20675;-72
2021/03/31 05:35:19;;;;;;;17.37;9.00;;;;;;;4.02;100.00;97184.25;5006621;28;20228;-73
2021/03/31 05:37:45;;;;;;;18.20;8.10;;;;;;;4.13;100.00;97179.06;5005448;28;20195;-70
2021/03/31 05:40:11;;;;;;;20.23;7.67;;;;;;;4.11;100.00;97186.19;5005368;28;20211;-71
2021/03/31 05:42:38;;;;;;;26.33;7.70;;;;;;;4.13;99.58;97176.44;5008394;28;20217;-72
2021/03/31 05:45:06;;;;;;;17.43;8.03;;;;;;;4.10;99.87;97178.44;5006521;28;20679;-74
2021/03/31 05:47:36;;;;;;;20.73;7.90;;;;;;;4.03;99.51;97185.91;5008018;28;20226;-71
2021/03/31 05:50:04;;;;;;;25.60;7.87;;;;;;;4.02;99.84;97181.66;5005826;28;20205;-74
2021/03/31 05:52:30;;;;;;;17.23;7.87;;;;;;;4.01;100.00;97185.19;5012354;28;20202;-72
2021/03/31 05:54:57;;;;;;;18.40;7.67;;;;;;;4.04;100.00;97189.34;5002827;28;20280;-74
2021/03/31 05:57:26;;;;;;;18.20;8.00;;;;;;;4.13;100.00;97184.28;5007146;28;20198;-73
2021/03/31 05:59:53;;;;;;;18.43;7.60;;;;;;;4.21;100.00;97187.13;5006753;28;20679;-72
2021/03/31 06:02:20;;;;;;;30.17;8.57;;;;;;;4.34;100.00;97193.91;5004744;28;20210;-71
2021/03/31 06:04:46;;;;;;;27.10;8.50;;;;;;;4.46;100.00;97192.97;5005121;28;20222;-72
2021/03/31 06:07:13;;;;;;;24.17;8.50;;;;;;;4.71;100.00;97191.91;5004623;28;20216;-71
2021/03/31 06:10:08;;;;;;;24.00;8.37;;;;;;;4.85;100.00;97179.47;5008638;28;20202;-73
2021/03/31 06:12:35;;;;;;;22.90;7.87;;;;;;;5.02;100.00;97184.22;5004925;28;20577;-73
2021/03/31 06:15:17;;;;;;;24.00;8.30;;;;;;;5.12;100.00;97188.56;5004228;28;20222;-72
2021/03/31 06:17:52;;;;;;;24.03;7.77;;;;;;;5.21;100.00;97194.88;5005034;28;20209;-71
2021/03/31 06:20:53;;;;;;;25.70;9.00;;;;;;;5.35;100.00;97186.78;5004340;28;20206;-74
2021/03/31 06:23:36;;;;;;;18.77;8.03;;;;;;;5.49;100.00;97188.13;5007835;28;20240;-73
2021/03/31 06:26:17;;;;;;;24.83;8.20;;;;;;;5.58;100.00;97189.19;5002304;28;20301;-70
2021/03/31 06:28:43;;;;;;;19.03;7.83;;;;;;;5.62;100.00;97193.22;5004319;28;20304;-73
2021/03/31 06:31:12;;;;;;;26.50;9.20;;;;;;;5.77;100.00;97189.41;5005514;28;20213;-74
2021/03/31 06:33:39;;;;;;;25.83;9.00;;;;;;;5.86;100.00;97186.03;5008142;28;20340;-74
2021/03/31 06:36:06;;;;;;;24.50;9.63;;;;;;;5.99;100.00;97187.50;5007102;28;20283;-70
2021/03/31 06:38:34;;;;;;;18.40;8.93;;;;;;;6.15;100.00;97193.13;5004336;28;20194;-72
2021/03/31 06:41:12;;;;;;;25.53;9.87;;;;;;;6.27;100.00;97192.09;5005144;28;20205;-73
2021/03/31 06:43:44;;;;;;;24.70;9.67;;;;;;;6.43;100.00;97185.47;5004639;28;20305;-72
2021/03/31 06:46:15;;;;;;;22.10;9.47;;;;;;;6.61;99.65;97183.91;5004684;28;20203;-74
2021/03/31 06:48:46;;;;;;;24.07;9.07;;;;;;;6.68;97.35;97177.19;5007579;28;20312;-73
2021/03/31 06:51:24;;;;;;;20.87;9.43;;;;;;;6.88;95.06;97173.69;5003631;28;20626;-72
2021/03/31 06:53:50;;;;;;;23.80;9.80;;;;;;;6.97;93.70;97173.72;5005914;28;20221;-69
2021/03/31 06:56:25;;;;;;;19.57;9.27;;;;;;;7.15;92.96;97166.06;5008499;28;20209;-73
2021/03/31 06:58:56;;;;;;;22.80;9.30;;;;;;;7.31;90.95;97167.22;5005924;28;20213;-72
2021/03/31 07:01:24;;;;;;;22.13;9.27;;;;;;;7.34;90.91;97165.16;5010289;28;20314;-74
2021/03/31 07:03:51;;;;;;;18.47;8.87;;;;;;;7.41;92.02;97163.63;5011187;28;20731;-72
2021/03/31 07:06:18;;;;;;;21.30;8.80;;;;;;;7.52;91.49;97157.44;5008862;28;20562;-73
2021/03/31 07:08:44;;;;;;;18.83;8.80;;;;;;;7.60;90.69;97166.28;5013384;28;20280;-73
2021/03/31 07:11:10;;;;;;;20.10;8.90;;;;;;;7.63;89.50;97166.00;5008184;28;21234;-71
2021/03/31 07:13:38;;;;;;;19.30;8.77;;;;;;;7.80;90.42;97164.50;5010804;28;20242;-71
2021/03/31 07:16:06;;;;;;;20.17;9.27;;;;;;;7.92;90.02;97154.56;5009579;28;20198;-72
2021/03/31 07:18:34;;;;;;;15.77;8.43;;;;;;;8.15;89.95;97150.72;5006452;28;20205;-70
2021/03/31 07:21:01;;;;;;;19.27;9.00;;;;;;;8.21;89.20;97152.78;5010843;28;20210;-73
2021/03/31 07:23:27;;;;;;;19.97;8.77;;;;;;;8.33;87.62;97159.53;5007075;28;20225;-70
2021/03/31 07:25:54;;;;;;;15.77;8.67;;;;;;;8.39;87.33;97158.13;5003702;28;20252;-70
2021/03/31 07:28:25;;;;;;;22.97;8.97;;;;;;;8.50;88.07;97156.16;5008752;28;20222;-72
2021/03/31 07:30:53;;;;;;;23.90;9.80;;;;;;;8.54;87.18;97153.13;5007793;28;20206;-71
2021/03/31 07:33:22;;;;;;;28.07;9.87;;;;;;;8.72;88.14;97150.59;5010087;28;20234;-71
2021/03/31 07:35:50;;;;;;;19.53;9.27;;;;;;;8.84;86.47;97139.72;5010314;28;20209;-74
2021/03/31 07:38:18;;;;;;;24.20;9.17;;;;;;;8.99;86.72;97148.81;5009196;28;20194;-72
2021/03/31 07:40:46;;;;;;;19.53;8.83;;;;;;;9.18;85.53;97144.28;5011810;28;20202;-72
2021/03/31 07:43:16;;;;;;;19.20;9.20;;;;;;;9.27;84.31;97134.69;5009113;28;20970;-73
2021/03/31 07:45:45;;;;;;;20.67;9.70;;;;;;;9.51;84.24;97135.78;5006453;28;20743;-74
2021/03/31 07:48:14;;;;;;;23.03;9.27;;;;;;;9.58;82.83;97142.06;5012642;28;20703;-74
2021/03/31 07:50:40;;;;;;;20.63;9.87;;;;;;;9.58;83.10;97136.00;5009857;28;20206;-73
2021/03/31 07:53:07;;;;;;;23.50;9.87;;;;;;;9.77;83.05;97136.69;5015794;28;20213;-73
2021/03/31 07:55:36;;;;;;;26.23;11.20;;;;;;;9.93;82.43;97137.66;5006377;28;20578;-73
2021/03/31 07:58:24;;;;;;;28.83;11.60;;;;;;;10.14;81.62;97137.38;5007276;28;20329;-71
2021/03/31 08:01:15;;;;;;;28.83;11.37;;;;;;;10.09;80.25;97132.53;5002986;28;20321;-71
2021/03/31 08:03:42;;;;;;;29.87;11.30;;;;;;;10.35;80.14;97134.25;5011005;28;20222;-74
2021/03/31 08:06:14;;;;;;;24.77;9.47;;;;;;;10.59;80.33;97136.19;5010036;28;20198;-73
2021/03/31 08:08:58;;;;;;;25.80;10.10;;;;;;;10.63;78.22;97132.31;5006798;28;20222;-72
2021/03/31 08:11:53;;;;;;;30.57;10.83;;;;;;;10.93;77.70;97127.34;5007729;28;20210;-73
2021/03/31 08:14:35;;;;;;;28.93;10.90;;;;;;;11.14;77.62;97118.03;5001689;28;20229;-73
2021/03/31 08:17:03;;;;;;;29.87;10.80;;;;;;;11.34;76.27;97115.97;5013622;28;20303;-73
2021/03/31 08:19:32;;;;;;;21.47;8.97;;;;;;;11.52;74.84;97114.91;5007669;28;20202;-73
2021/03/31 08:22:00;;;;;;;20.07;8.83;;;;;;;11.55;73.73;97111.94;5012488;28;20213;-72
2021/03/31 08:24:41;;;;;;;18.70;8.43;;;;;;;11.54;74.29;97115.56;5004320;28;20234;-73
2021/03/31 08:27:07;;;;;;;19.80;9.33;;;;;;;11.61;74.83;97124.50;5001065;28;20218;-73
2021/03/31 08:29:48;;;;;;;22.90;8.87;;;;;;;11.89;75.47;97115.28;5004151;28;20222;-74
2021/03/31 08:32:14;;;;;;;19.35;9.10;;;;;;;11.87;74.40;97122.56;5008556;28;20230;-70
2021/03/31 08:34:43;;;;;;;20.87;9.80;;;;;;;11.89;75.79;97123.19;5012189;28;20595;-73
2021/03/31 08:37:20;;;;;;;18.25;8.93;;;;;;;12.08;76.30;97125.53;5011165;28;20268;-73
2021/03/31 08:39:46;;;;;;;19.70;8.70;;;;;;;12.20;75.71;97125.03;5003414;28;20585;-73
2021/03/31 08:42:12;;;;;;;20.02;8.60;;;;;;;12.26;73.01;97129.69;5009747;28;20202;-74
2021/03/31 08:44:39;;;;;;;16.80;8.70;;;;;;;12.43;73.42;97128.66;5005426;28;20226;-73
2021/03/31 08:47:10;;;;;;;17.92;8.63;;;;;;;12.52;73.04;97125.84;5005624;28;20703;-71
2021/03/31 08:49:36;;;;;;;19.70;9.18;;;;;;;12.62;72.90;97120.38;5006222;28;20222;-74
2021/03/31 08:52:06;;;;;;;17.45;8.70;;;;;;;12.42;73.53;97111.16;5003373;28;20202;-70
2021/03/31 08:54:33;;;;;;;20.02;8.55;;;;;;;12.62;73.93;97115.09;5005047;28;20708;-70
2021/03/31 08:57:00;;;;;;;17.38;8.38;;;;;;;12.96;71.16;97111.25;5006850;28;20262;-73
2021/03/31 08:59:30;;;;;;;21.38;8.80;;;;;;;13.37;70.84;97102.13;5004738;28;20277;-71
2021/03/31 09:01:56;;;;;;;23.17;9.52;;;;;;;13.53;68.16;97109.00;5009137;28;20679;-74
2021/03/31 09:04:25;;;;;;;17.35;9.50;;;;;;;13.75;69.05;97102.88;5007111;28;20288;-71
2021/03/31 09:06:51;;;;;;;24.55;8.55;;;;;;;14.00;66.00;97107.00;5002795;28;20206;-71
2021/03/31 09:09:18;;;;;;;20.23;9.02;;;;;;;13.98;66.51;97098.44;5007016;28;20230;-71
2021/03/31 09:11:44;;;;;;;21.38;8.88;;;;;;;14.23;65.42;97098.09;5008885;28;20202;-71
2021/03/31 09:14:18;;;;;;;20.48;8.65;;;;;;;14.37;66.81;97093.81;5002973;28;20265;-70
2021/03/31 09:16:52;;;;;;;19.70;9.43;;;;;;;14.46;65.62;97092.72;5007130;28;20197;-72
2021/03/31 09:19:18;;;;;;;18.70;9.40;;;;;;;14.62;66.39;97082.78;5008023;28;20198;-73
2021/03/31 09:21:45;;;;;;;19.60;9.02;;;;;;;14.87;64.56;97076.25;5010141;28;20209;-74
2021/03/31 09:24:15;;;;;;;19.60;9.60;;;;;;;15.07;64.89;97085.28;5009143;28;20222;-74
2021/03/31 09:26:42;;;;;;;22.50;9.48;;;;;;;15.15;63.47;97086.00;5003954;28;20226;-74
2021/03/31 09:29:14;;;;;;;20.55;9.80;;;;;;;15.25;61.80;97081.28;5005044;28;20226;-71
2021/03/31 09:31:42;;;;;;;24.40;10.73;;;;;;;15.24;60.59;97078.81;5001257;28;20206;-74
2021/03/31 09:34:09;;;;;;;21.52;10.02;;;;;;;15.37;62.06;97069.16;5004883;28;20256;-73
2021/03/31 09:36:35;;;;;;;22.60;10.30;;;;;;;15.56;62.12;97069.38;5000553;28;20202;-74
2021/03/31 09:39:02;;;;;;;22.45;10.50;;;;;;;15.55;60.57;97061.59;5003926;28;20672;-73
2021/03/31 09:41:29;;;;;;;25.50;11.07;;;;;;;15.72;60.72;97065.66;5000684;28;20261;-72
2021/03/31 09:43:56;;;;;;;24.67;11.05;;;;;;;15.73;59.32;97064.66;5002746;28;20245;-74
2021/03/31 09:46:24;;;;;;;22.52;10.68;;;;;;;15.76;61.12;97059.81;5006849;28;20204;-72
2021/03/31 09:48:50;;;;;;;25.63;11.40;;;;;;;15.87;59.67;97062.78;5006102;28;20593;-74
2021/03/31 09:51:16;;;;;;;26.98;11.73;;;;;;;16.02;59.29;97060.88;5011204;28;20637;-73
2021/03/31 09:53:43;;;;;;;23.75;11.30;;;;;;;16.12;59.31;97053.41;5004097;28;21001;-72
2021/03/31 09:56:11;;;;;;;26.10;11.70;;;;;;;16.08;58.06;97053.97;5003338;28;20552;-71
2021/03/31 09:58:38;;;;;;;20.17;10.90;;;;;;;16.18;59.57;97049.16;5004670;28;20683;-74
2021/03/31 10:01:10;;;;;;;24.73;12.10;;;;;;;16.36;60.82;97044.25;5008703;28;20203;-75
2021/03/31 10:03:36;;;;;;;23.20;10.63;;;;;;;16.38;58.87;97045.69;5005349;28;20222;-72
2021/03/31 10:06:15;;;;;;;24.73;11.23;;;;;;;16.53;59.90;97043.72;5004344;28;20202;-74
2021/03/31 10:08:41;;;;;;;25.02;11.50;;;;;;;16.57;59.15;97029.84;5001629;28;20283;-74
2021/03/31 10:11:10;;;;;;;28.55;12.75;;;;;;;16.83;58.30;97035.34;5004884;28;20269;-72
2021/03/31 10:13:36;;;;;;;26.17;11.68;;;;;;;16.92;57.82;97031.50;5001553;28;20722;-71
2021/03/31 10:16:06;;;;;;;23.75;12.07;;;;;;;16.98;57.33;97033.38;5002532;28;20198;-75
2021/03/31 10:18:33;;;;;;;31.90;12.27;;;;;;;17.02;55.14;97028.47;5007746;28;20251;-74
2021/03/31 10:21:00;;;;;;;26.20;12.05;;;;;;;17.04;57.68;97027.25;5004848;28;20225;-74
2021/03/31 10:23:30;;;;;;;25.67;11.88;;;;;;;17.24;57.24;97026.34;5004064;28;20230;-72
2021/03/31 10:26:27;;;;;;;24.75;11.13;;;;;;;17.61;56.81;97025.88;5003178;28;20708;-71
2021/03/31 10:28:55;;;;;;;24.45;11.65;;;;;;;17.51;55.05;97028.09;4919818;29;20638;-73
2021/03/31 10:31:28;;;;;;;29.55;12.43;;;;;;;17.39;53.28;97027.03;4989643;28;20199;-74
2021/03/31 10:33:55;;;;;;;25.77;11.75;;;;;;;17.49;54.57;97027.47;5007658;28;20288;-74
2021/03/31 10:36:35;;;;;;;23.23;11.52;;;;;;;17.87;55.75;97018.75;5009952;28;20206;-74
2021/03/31 10:39:24;;;;;;;26.80;12.10;;;;;;;17.88;55.15;97022.22;5012049;28;20197;-74
2021/03/31 10:47:20;;;;;;;28.08;11.57;;;;;;;18.35;52.40;97015.75;5010354;28;21155;-72
2021/03/31 10:49:49;;;;;;;21.42;10.57;;;;;;;18.48;50.97;97002.38;5008607;28;20666;-74
2021/03/31 10:52:17;;;;;;;23.70;11.75;;;;;;;18.69;53.01;97006.66;5015697;28;20206;-74
2021/03/31 10:54:43;;;;;;;25.63;11.73;;;;;;;18.87;50.56;96998.81;5007697;28;20222;-72
2021/03/31 10:57:11;;;;;;;23.02;11.02;;;;;;;19.11;50.05;96996.28;5010343;28;20217;-72
2021/03/31 10:59:37;;;;;;;25.20;11.55;;;;;;;18.88;50.53;96995.13;5011663;28;20256;-72
2021/03/31 11:02:04;;;;;;;22.00;11.50;;;;;;;18.97;49.07;96989.31;5007889;28;20230;-71
2021/03/31 11:04:31;;;;;;;25.67;11.70;;;;;;;18.93;51.42;96994.25;5008570;28;20226;-72
2021/03/31 11:06:57;;;;;;;24.02;11.88;;;;;;;18.66;51.06;96989.22;5007397;28;20680;-73
2021/03/31 11:09:23;;;;;;;28.92;12.27;;;;;;;18.98;50.75;96986.44;5009982;28;20225;-73
2021/03/31 11:11:49;;;;;;;21.17;10.82;;;;;;;19.37;48.78;96985.50;5011590;28;20202;-73
2021/03/31 11:14:17;;;;;;;26.08;11.52;;;;;;;19.28;49.62;96992.09;5007558;28;20221;-71
2021/03/31 11:16:48;;;;;;;30.05;11.73;;;;;;;19.54;54.11;96983.94;5007024;28;20389;-74
2021/03/31 11:19:26;;;;;;;26.33;11.60;;;;;;;19.73;48.02;96975.84;5009717;28;20238;-73
2021/03/31 11:27:21;;;;;;;22.83;11.07;;;;;;;19.64;46.73;96972.59;5009338;28;20213;-73
2021/03/31 11:29:49;;;;;;;30.10;10.85;;;;;;;19.65;45.43;96968.88;5007170;28;21016;-71
2021/03/31 11:32:15;;;;;;;25.20;12.07;;;;;;;20.06;44.63;96969.25;5009914;28;20221;-74
2021/03/31 11:34:41;;;;;;;25.83;11.30;;;;;;;20.09;43.35;96965.31;5008118;28;20219;-74
2021/03/31 11:37:08;;;;;;;25.50;11.30;;;;;;;19.77;43.93;96967.16;5006902;28;20260;-71
2021/03/31 11:39:34;;;;;;;21.90;11.20;;;;;;;20.23;45.47;96954.28;5006357;28;20571;-74
2021/03/31 11:42:01;;;;;;;30.98;12.05;;;;;;;20.42;43.00;96953.28;5014114;28;20338;-73
2021/03/31 11:44:27;;;;;;;25.92;11.80;;;;;;;20.28;42.66;96946.41;5008071;28;20231;-71
2021/03/31 11:46:53;;;;;;;24.30;11.27;;;;;;;20.58;45.28;96942.81;5002666;28;20687;-73